Time;durP1;ratioP1;P1;durP2;ratioP2;P2;SDS_P1;SDS_P2;PMS_P1;PMS_P2;Temp;Humidity;BMP_temperature;BMP_pressure;BME280_temperature;BME280_humidity;BME280_pressure;Samples;Min_cycle;Max_cycle;Signal;HPM_P1;HPM_P2
2022/06/06 00:01:32;;;;;;;12.25;9.53;;;;;;;13.14;75.50;99011.80;2213808;80;20927;-81
2022/06/06 00:04:32;;;;;;;8.95;8.15;;;;;;;13.21;75.21;99014.05;2213700;80;20971;-81
2022/06/06 00:07:33;;;;;;;9.48;8.58;;;;;;;13.23;74.74;99012.31;2213481;80;20928;-79
2022/06/06 00:10:33;;;;;;;90.50;13.65;;;;;;;13.24;74.50;99020.61;2213701;80;20964;-80
2022/06/06 00:13:33;;;;;;;15.13;9.73;;;;;;;13.19;74.35;99020.59;2213479;80;20980;-80
2022/06/06 00:16:35;;;;;;;9.95;8.20;;;;;;;13.18;74.44;99021.47;2213693;80;21027;-80
2022/06/06 00:19:35;;;;;;;11.22;7.87;;;;;;;13.08;74.07;99019.64;2213526;80;20973;-80
2022/06/06 00:22:35;;;;;;;9.98;8.48;;;;;;;12.91;74.38;99017.34;2214082;80;20933;-80
2022/06/06 00:25:36;;;;;;;9.18;8.30;;;;;;;12.69;74.98;99018.53;2213687;80;21296;-80
2022/06/06 00:28:36;;;;;;;9.60;8.30;;;;;;;12.69;74.78;99021.15;2213813;80;20928;-80
2022/06/06 00:34:58;;;;;;;8.73;7.92;;;;;;;12.54;75.26;99015.81;2213633;80;21367;-80
2022/06/06 00:37:57;;;;;;;44.93;13.20;;;;;;;12.44;75.42;99023.16;2214112;80;20933;-81
2022/06/06 00:40:57;;;;;;;15.83;9.98;;;;;;;12.41;76.03;99020.09;2213691;80;21344;-80
2022/06/06 00:43:57;;;;;;;10.18;9.05;;;;;;;12.43;76.34;99018.80;2213711;80;20905;-80
2022/06/06 00:46:58;;;;;;;9.65;8.75;;;;;;;12.43;76.12;99026.22;2213838;80;20991;-82
2022/06/06 00:49:58;;;;;;;10.08;9.08;;;;;;;12.36;75.59;99020.48;2214010;80;20932;-81
2022/06/06 00:52:59;;;;;;;9.88;9.00;;;;;;;12.31;76.18;99022.20;2214243;80;20932;-82
2022/06/06 00:55:59;;;;;;;10.05;9.00;;;;;;;12.27;76.39;99020.42;2213669;80;20980;-81
2022/06/06 00:59:00;;;;;;;12.65;9.95;;;;;;;12.26;76.74;99019.09;2213866;80;20960;-80
2022/06/06 01:02:00;;;;;;;12.82;9.08;;;;;;;12.24;76.68;99024.32;2213648;80;21300;-80
2022/06/06 01:05:02;;;;;;;10.03;9.00;;;;;;;12.22;76.66;99028.66;2213972;80;20929;-80
2022/06/06 01:08:01;;;;;;;11.35;10.23;;;;;;;12.20;76.62;99030.83;2213834;80;20889;-80
2022/06/06 01:11:01;;;;;;;10.80;9.68;;;;;;;12.17;76.97;99029.49;2213801;80;20964;-80
2022/06/06 01:14:02;;;;;;;44.15;11.63;;;;;;;12.15;76.81;99028.17;2213872;80;20945;-80
2022/06/06 01:17:02;;;;;;;12.88;10.30;;;;;;;12.09;76.91;99028.97;2213668;80;20976;-80
2022/06/06 01:20:03;;;;;;;14.98;10.30;;;;;;;12.01;76.80;99024.52;2214036;80;21291;-80
2022/06/06 01:23:03;;;;;;;10.47;9.27;;;;;;;11.94;76.89;99024.91;2214016;80;20959;-80
2022/06/06 01:26:04;;;;;;;11.45;10.35;;;;;;;11.91;77.18;99015.72;2214046;80;20999;-80
2022/06/06 01:29:04;;;;;;;12.47;10.23;;;;;;;11.77;77.05;99012.97;2213453;80;20924;-80
2022/06/06 01:32:04;;;;;;;11.03;10.00;;;;;;;11.60;77.07;99014.94;2213350;80;20897;-80
2022/06/06 01:35:05;;;;;;;10.43;9.40;;;;;;;11.48;77.32;99007.84;2213734;80;20955;-79
2022/06/06 01:38:05;;;;;;;10.40;9.50;;;;;;;11.36;77.49;99002.06;2213398;80;20964;-80
2022/06/06 01:41:05;;;;;;;14.20;9.93;;;;;;;11.27;77.79;98998.03;2213373;80;20928;-79
2022/06/06 01:44:06;;;;;;;11.47;10.30;;;;;;;11.20;78.01;99005.75;2213692;80;20885;-79
2022/06/06 01:47:06;;;;;;;12.87;10.67;;;;;;;11.17;78.50;99008.77;2213278;80;20976;-81
2022/06/06 01:50:07;;;;;;;11.27;10.07;;;;;;;11.16;78.67;99006.14;2213389;80;21296;-80
2022/06/06 01:53:07;;;;;;;11.87;10.77;;;;;;;11.11;78.62;99014.35;2213515;80;21017;-80
2022/06/06 01:56:07;;;;;;;11.60;10.53;;;;;;;11.13;79.56;99018.73;2213651;80;20979;-79
2022/06/06 01:59:08;;;;;;;11.27;10.03;;;;;;;11.15;79.25;99019.63;2213531;80;20927;-80
2022/06/06 02:02:09;;;;;;;11.50;10.30;;;;;;;11.15;79.09;99020.06;2212851;80;20940;-79
2022/06/06 02:05:09;;;;;;;11.53;10.43;;;;;;;11.06;78.99;99015.60;2213744;80;20952;-80
2022/06/06 02:08:09;;;;;;;11.60;10.40;;;;;;;11.00;79.14;99012.03;2213506;80;20920;-79
2022/06/06 02:11:09;;;;;;;50.47;12.03;;;;;;;10.91;79.19;99001.47;2213406;80;21331;-80
2022/06/06 02:14:11;;;;;;;11.50;10.30;;;;;;;10.84;79.48;99007.92;2208484;80;21028;-81
2022/06/06 02:17:10;;;;;;;12.97;10.00;;;;;;;10.83;80.03;99007.90;2207730;81;20976;-80
2022/06/06 02:20:11;;;;;;;12.23;10.20;;;;;;;10.81;80.06;99001.78;2207921;81;21434;-80
2022/06/06 02:23:12;;;;;;;19.00;10.97;;;;;;;10.82;80.08;99002.23;2207956;81;20952;-80
2022/06/06 02:26:12;;;;;;;33.83;12.60;;;;;;;10.82;81.22;99004.41;2208230;81;21359;-80
2022/06/06 02:29:12;;;;;;;11.50;9.97;;;;;;;10.91;81.47;99014.53;2207759;81;20949;-81
2022/06/06 02:32:13;;;;;;;13.17;10.83;;;;;;;10.96;80.99;99006.33;2208282;81;20965;-80
2022/06/06 02:35:13;;;;;;;11.43;10.37;;;;;;;10.94;80.76;99011.95;2208103;81;20956;-80
2022/06/06 02:38:13;;;;;;;16.47;10.37;;;;;;;11.53;81.53;99010.52;2208038;81;20897;-80
2022/06/06 02:41:14;;;;;;;12.70;11.50;;;;;;;11.50;79.65;99021.81;2207805;81;20963;-81
2022/06/06 02:44:14;;;;;;;10.93;10.03;;;;;;;11.43;79.83;99019.98;2208081;81;20969;-80
2022/06/06 02:47:14;;;;;;;11.23;10.13;;;;;;;11.42;79.63;99024.77;2207867;81;20991;-80
2022/06/06 02:50:15;;;;;;;12.50;10.97;;;;;;;11.39;79.43;99035.19;2208061;81;20928;-80
2022/06/06 02:53:15;;;;;;;13.63;11.17;;;;;;;11.35;79.73;99030.36;2208099;81;20920;-79
2022/06/06 02:56:16;;;;;;;11.63;10.43;;;;;;;11.32;79.45;99023.78;2207793;81;21000;-80
2022/06/06 02:59:16;;;;;;;11.60;10.40;;;;;;;11.29;79.93;99027.67;2207727;81;20956;-79
2022/06/06 03:02:16;;;;;;;11.47;10.37;;;;;;;11.30;79.53;99027.24;2208095;81;20977;-80
2022/06/06 03:05:17;;;;;;;12.73;11.63;;;;;;;11.32;80.20;99025.52;2207809;81;20964;-79
2022/06/06 03:08:18;;;;;;;12.70;11.60;;;;;;;11.40;81.17;99020.83;2207858;81;21347;-79
2022/06/06 03:11:18;;;;;;;16.70;12.33;;;;;;;11.49;80.94;99019.63;2207815;81;20925;-81
2022/06/06 03:14:18;;;;;;;12.20;11.20;;;;;;;11.58;81.17;99011.00;2213122;80;21019;-80
2022/06/06 03:20:50;;;;;;;13.90;11.68;;;;;;;11.90;81.42;99014.40;2213064;80;21392;-80
2022/06/06 03:23:50;;;;;;;11.67;10.57;;;;;;;12.12;81.19;99020.27;2213497;80;20992;-80
2022/06/06 03:26:50;;;;;;;62.10;13.48;;;;;;;12.36;80.74;99010.45;2213694;80;21311;-79
2022/06/06 03:29:50;;;;;;;10.88;9.80;;;;;;;12.46;80.03;99007.47;2213750;80;21390;-79
2022/06/06 03:32:51;;;;;;;11.80;10.70;;;;;;;12.53;79.67;99007.52;2213691;80;20964;-79
2022/06/06 03:35:51;;;;;;;220.17;25.60;;;;;;;12.59;79.91;99002.32;2212883;80;20975;-80
2022/06/06 03:38:52;;;;;;;16.07;11.15;;;;;;;12.70;79.89;99005.88;2213112;80;20980;-80
2022/06/06 03:41:52;;;;;;;16.20;11.83;;;;;;;12.88;79.75;99005.10;2211683;80;21363;-81
2022/06/06 03:44:52;;;;;;;11.93;10.88;;;;;;;13.05;79.86;99006.09;2211604;80;20976;-79
2022/06/06 03:47:53;;;;;;;12.23;11.22;;;;;;;13.19;79.47;99000.94;2210631;80;21051;-80
2022/06/06 03:50:53;;;;;;;21.85;12.10;;;;;;;13.34;79.19;99000.99;2211009;80;20971;-80
2022/06/06 03:53:54;;;;;;;11.20;10.10;;;;;;;13.50;78.94;98993.17;2210755;80;21410;-78
2022/06/06 03:56:54;;;;;;;12.00;10.90;;;;;;;13.66;78.58;98985.77;2210874;80;21011;-80
2022/06/06 03:59:54;;;;;;;12.07;10.98;;;;;;;13.79;78.55;98983.61;2211501;80;20940;-80
2022/06/06 04:02:55;;;;;;;12.60;11.12;;;;;;;13.95;77.95;98990.65;2212133;80;20941;-80
2022/06/06 04:05:55;;;;;;;12.35;11.22;;;;;;;14.14;77.64;98992.84;2213549;80;20959;-81
2022/06/06 04:08:58;;;;;;;11.50;10.50;;;;;;;14.37;77.25;98987.57;2213797;80;20893;-80
2022/06/06 04:11:58;;;;;;;12.15;11.05;;;;;;;14.53;76.77;98974.89;2214445;80;21007;-79
2022/06/06 04:14:58;;;;;;;11.08;9.95;;;;;;;14.66;76.36;98965.22;2214283;80;20983;-80
2022/06/06 04:17:59;;;;;;;10.95;10.05;;;;;;;14.80;75.90;98965.22;2213881;80;20963;-80
2022/06/06 04:20:59;;;;;;;11.55;9.30;;;;;;;15.00;75.79;98969.96;2214109;80;21003;-79
2022/06/06 04:24:00;;;;;;;11.08;10.08;;;;;;;15.21;75.14;98982.14;2212619;80;20990;-80
2022/06/06 04:27:00;;;;;;;14.07;10.65;;;;;;;15.43;74.75;98993.43;2210651;80;21391;-81
2022/06/06 04:30:05;;;;;;;10.75;9.58;;;;;;;15.69;74.19;99007.81;2211823;80;21019;-81
2022/06/06 04:33:03;;;;;;;10.63;9.63;;;;;;;15.90;73.58;99009.00;2188754;80;20936;-83
2022/06/06 04:36:03;;;;;;;11.73;9.28;;;;;;;16.11;72.95;99002.70;2211692;80;21429;-81
2022/06/06 04:39:04;;;;;;;21.30;9.53;;;;;;;16.31;72.35;99011.75;2211585;80;21083;-79
2022/06/06 04:42:04;;;;;;;10.10;9.10;;;;;;;16.35;71.80;99000.30;2209986;80;21554;-80
2022/06/06 04:45:05;;;;;;;21.90;10.00;;;;;;;16.40;71.70;98999.37;2210901;80;20936;-83
2022/06/06 04:48:05;;;;;;;11.18;8.48;;;;;;;16.54;71.30;99015.08;2210169;80;21008;-79
2022/06/06 04:51:05;;;;;;;16.70;9.10;;;;;;;16.67;70.83;99009.28;2210498;80;21431;-81
2022/06/06 04:54:06;;;;;;;8.88;8.08;;;;;;;16.79;70.50;99006.08;2210305;80;21010;-79
2022/06/06 04:57:06;;;;;;;199.45;18.15;;;;;;;16.96;70.06;99007.66;2210520;80;20956;-79
2022/06/06 05:00:06;;;;;;;9.45;8.38;;;;;;;17.15;69.61;99004.78;2208797;80;21004;-79
2022/06/06 05:03:07;;;;;;;9.18;7.90;;;;;;;17.30;68.63;98991.84;2208594;80;21006;-79
2022/06/06 05:06:07;;;;;;;13.95;7.95;;;;;;;17.36;68.01;98986.53;2210098;80;20967;-78
2022/06/06 05:09:08;;;;;;;8.43;7.62;;;;;;;17.51;67.81;98987.64;2210420;80;20960;-81
2022/06/06 05:12:08;;;;;;;8.98;7.37;;;;;;;17.75;67.54;98985.13;2211251;80;21019;-81
2022/06/06 05:15:08;;;;;;;8.55;7.75;;;;;;;18.09;67.34;98998.69;2204960;81;21003;-81
2022/06/06 05:18:09;;;;;;;8.08;7.22;;;;;;;18.42;66.27;99004.34;2205581;81;21056;-82
2022/06/06 05:21:09;;;;;;;8.28;7.50;;;;;;;18.72;65.30;99001.63;2205509;81;21937;-81
2022/06/06 05:24:10;;;;;;;7.83;6.92;;;;;;;19.01;64.01;98988.72;2205839;81;20944;-80
2022/06/06 05:27:10;;;;;;;8.05;6.78;;;;;;;19.17;63.05;98990.64;2205578;81;21434;-81
2022/06/06 05:30:11;;;;;;;7.75;7.05;;;;;;;19.36;62.80;98988.03;2205695;81;20928;-83
2022/06/06 05:33:11;;;;;;;7.30;6.65;;;;;;;19.62;62.22;98993.24;2204561;81;21090;-78
2022/06/06 05:36:11;;;;;;;14.13;7.10;;;;;;;19.69;60.90;98987.78;2204917;81;21031;-80
2022/06/06 05:39:12;;;;;;;6.75;5.92;;;;;;;19.88;60.75;98990.88;2204346;81;21019;-80
2022/06/06 05:42:12;;;;;;;6.22;5.62;;;;;;;20.14;59.80;98989.41;2202553;81;21027;-79
2022/06/06 05:45:13;;;;;;;6.83;6.22;;;;;;;20.45;59.72;98997.05;2202399;81;21019;-80
2022/06/06 05:48:13;;;;;;;22.58;6.58;;;;;;;20.67;59.14;99001.34;2204138;81;21036;-79
2022/06/06 05:51:13;;;;;;;6.60;6.10;;;;;;;20.90;57.81;98999.42;2204745;81;20991;-79
2022/06/06 05:54:14;;;;;;;6.03;5.50;;;;;;;21.15;57.90;98998.28;2204460;81;21066;-79
2022/06/06 05:57:14;;;;;;;6.17;5.37;;;;;;;21.41;55.33;98999.76;2204187;81;20983;-81
2022/06/06 06:00:16;;;;;;;5.58;4.72;;;;;;;21.43;55.17;99002.37;2205612;81;21405;-80
2022/06/06 06:03:15;;;;;;;5.70;5.25;;;;;;;21.62;54.44;99005.76;2205337;81;20968;-80
2022/06/06 06:06:15;;;;;;;5.15;4.75;;;;;;;21.91;55.15;99001.37;2205486;81;20964;-81
2022/06/06 06:09:18;;;;;;;5.05;4.75;;;;;;;22.30;53.02;99003.69;2204770;81;21651;-79
2022/06/06 06:12:19;;;;;;;7.28;5.37;;;;;;;22.55;52.02;99004.64;2185392;81;21031;-79
2022/06/06 06:15:18;;;;;;;5.95;4.40;;;;;;;22.61;51.24;98997.78;2211967;80;21063;-80
2022/06/06 06:18:19;;;;;;;6.30;4.37;;;;;;;22.68;50.89;99004.63;2211591;80;21027;-80
2022/06/06 06:21:19;;;;;;;20.00;7.60;;;;;;;22.92;50.73;98999.40;2211666;80;20959;-79
2022/06/06 06:24:20;;;;;;;5.70;5.10;;;;;;;23.15;49.87;99003.43;2211446;80;21296;-79
2022/06/06 06:27:20;;;;;;;5.58;4.60;;;;;;;23.20;49.60;99006.80;2211973;80;20999;-80
2022/06/06 06:30:20;;;;;;;16.30;5.92;;;;;;;23.23;49.04;99002.69;2210640;80;21015;-82
2022/06/06 06:33:21;;;;;;;7.00;5.15;;;;;;;23.14;49.10;99005.69;2212065;80;20987;-80
2022/06/06 06:36:21;;;;;;;28.98;5.87;;;;;;;23.30;49.39;99008.66;2211936;80;21027;-78
2022/06/06 06:39:22;;;;;;;14.58;6.03;;;;;;;23.46;48.88;99008.05;2211109;80;20971;-79
2022/06/06 06:42:22;;;;;;;8.48;5.28;;;;;;;23.46;48.01;99006.73;2211289;80;20936;-80
2022/06/06 06:45:23;;;;;;;18.37;5.75;;;;;;;23.51;47.80;99009.21;2209498;80;21019;-83
2022/06/06 06:48:24;;;;;;;6.80;4.87;;;;;;;23.65;48.65;99013.59;2211159;80;21056;-81
2022/06/06 06:51:23;;;;;;;50.35;8.73;;;;;;;23.80;48.46;99007.66;2211358;80;21031;-80
2022/06/06 06:54:24;;;;;;;5.67;4.83;;;;;;;24.11;47.88;99007.30;2210948;80;21255;-80
2022/06/06 06:57:24;;;;;;;5.42;4.92;;;;;;;24.39;47.47;98998.23;2212132;80;20960;-80
2022/06/06 07:00:25;;;;;;;8.03;5.42;;;;;;;24.65;47.19;99004.67;2212260;80;21320;-81
2022/06/06 07:08:32;;;;;;;12.50;5.42;;;;;;;25.36;47.08;99006.50;2212328;80;21901;-81
2022/06/06 07:09:44;;;;;;;4.97;4.55;;;;;;;25.74;45.80;99007.89;2212639;80;21015;-81
2022/06/06 07:12:45;;;;;;;4.15;3.83;;;;;;;25.87;44.10;99005.03;2211726;80;21011;-80
2022/06/06 07:15:45;;;;;;;4.72;4.15;;;;;;;25.93;43.31;99014.97;2211629;80;21019;-80
2022/06/06 07:18:46;;;;;;;13.00;4.33;;;;;;;26.05;41.81;99000.64;2211166;80;21027;-79
2022/06/06 07:21:46;;;;;;;8.55;4.40;;;;;;;26.14;42.95;99006.41;2210092;80;21015;-80
2022/06/06 07:24:47;;;;;;;5.40;4.03;;;;;;;26.18;42.22;99003.11;2210035;80;21386;-81
2022/06/06 07:27:47;;;;;;;3.80;3.50;;;;;;;26.22;41.99;99006.90;2210797;80;20995;-80
2022/06/06 07:30:47;;;;;;;96.72;10.43;;;;;;;26.33;42.44;98997.03;2211369;80;20960;-79
2022/06/06 07:33:48;;;;;;;19.60;5.55;;;;;;;26.53;42.83;99001.39;2211336;80;20980;-80
2022/06/06 07:36:48;;;;;;;6.47;4.12;;;;;;;26.80;42.07;98995.09;2212048;80;20975;-81
2022/06/06 07:39:49;;;;;;;106.30;12.07;;;;;;;27.12;41.32;99005.05;2211539;80;21574;-80
2022/06/06 07:42:49;;;;;;;9.20;4.12;;;;;;;27.24;40.14;99012.44;2211160;80;21023;-81
2022/06/06 07:45:49;;;;;;;5.03;3.62;;;;;;;27.27;40.28;99010.07;2211757;80;20964;-80
2022/06/06 07:48:50;;;;;;;6.58;3.60;;;;;;;27.06;39.73;99009.39;2211147;80;22016;-81
2022/06/06 07:51:50;;;;;;;4.28;3.33;;;;;;;26.77;40.88;99012.19;2210708;80;21003;-80
2022/06/06 07:54:51;;;;;;;12.37;4.83;;;;;;;26.62;41.07;99012.50;2208115;80;21015;-80
2022/06/06 07:57:51;;;;;;;3.95;3.62;;;;;;;26.29;40.95;99015.02;2210745;80;20987;-80
2022/06/06 08:00:51;;;;;;;3.98;3.60;;;;;;;26.07;40.60;99017.02;2210914;80;21003;-80
2022/06/06 08:03:52;;;;;;;6.65;3.58;;;;;;;25.75;41.21;99014.97;2211502;80;20976;-80
2022/06/06 08:06:52;;;;;;;5.85;3.65;;;;;;;25.42;41.38;99008.89;2211702;80;20976;-80
2022/06/06 08:09:53;;;;;;;47.88;5.85;;;;;;;25.49;41.86;99005.47;2211280;80;20967;-80
2022/06/06 08:12:55;;;;;;;7.85;3.90;;;;;;;25.65;41.17;99006.48;2210371;80;21026;-79
2022/06/06 08:15:54;;;;;;;7.40;3.70;;;;;;;25.86;40.51;99000.16;2212465;80;21027;-80
2022/06/06 08:18:54;;;;;;;7.80;3.60;;;;;;;26.29;40.69;98999.44;2211940;80;21011;-82
2022/06/06 08:21:54;;;;;;;25.57;5.00;;;;;;;26.49;39.57;99006.03;2212214;80;21010;-80
2022/06/06 08:24:56;;;;;;;21.85;4.42;;;;;;;26.62;39.95;99000.92;2206705;80;22006;-81
2022/06/06 08:27:56;;;;;;;11.95;4.05;;;;;;;26.82;37.99;98993.20;2212105;80;20913;-80
2022/06/06 08:30:57;;;;;;;4.72;3.70;;;;;;;26.95;38.58;99000.55;2209006;80;20983;-81
2022/06/06 08:33:57;;;;;;;3.95;3.65;;;;;;;27.06;39.31;98999.16;2210007;80;21006;-79
2022/06/06 08:37:00;;;;;;;4.35;3.37;;;;;;;27.23;38.58;98996.44;2211508;80;21035;-80
2022/06/06 08:40:01;;;;;;;13.72;4.40;;;;;;;27.38;39.17;99000.98;2211884;80;21516;-79
2022/06/06 08:43:01;;;;;;;3.52;3.20;;;;;;;27.66;37.92;98996.34;2210781;80;21280;-77
2022/06/06 08:46:01;;;;;;;3.95;3.15;;;;;;;27.83;37.89;98992.28;2210221;80;20995;-78
2022/06/06 08:49:02;;;;;;;7.00;3.35;;;;;;;27.96;37.04;98987.56;2210682;80;21459;-81
2022/06/06 08:52:02;;;;;;;3.60;3.30;;;;;;;28.11;36.92;98992.92;2212645;80;20952;-78
2022/06/06 08:55:03;;;;;;;4.30;3.75;;;;;;;28.02;36.00;98992.10;2211250;80;21050;-80
2022/06/06 08:58:03;;;;;;;5.80;3.33;;;;;;;28.09;36.00;98986.78;2211224;80;21014;-80
2022/06/06 09:01:03;;;;;;;8.00;4.30;;;;;;;28.33;36.08;98987.20;2211098;80;20976;-78
2022/06/06 09:04:04;;;;;;;5.85;3.77;;;;;;;28.48;35.22;98989.47;2211969;80;21036;-79
2022/06/06 09:07:04;;;;;;;17.07;6.03;;;;;;;28.48;35.22;98989.47;2211861;80;21003;-79
2022/06/06 09:10:05;;;;;;;9.08;5.30;;;;;;;28.87;34.87;98984.09;2209881;80;20995;-79
2022/06/06 09:13:05;;;;;;;14.33;5.40;;;;;;;29.07;34.58;98985.94;2209361;80;21980;-79
2022/06/06 09:16:05;;;;;;;3.75;3.40;;;;;;;29.06;34.98;98972.59;2210205;80;21012;-78
2022/06/06 09:19:06;;;;;;;19.27;4.97;;;;;;;29.10;33.90;98968.28;2208783;80;21094;-80
2022/06/06 09:22:07;;;;;;;7.75;4.50;;;;;;;29.07;34.41;98972.98;2211066;80;20945;-79
2022/06/06 09:25:07;;;;;;;5.00;3.90;;;;;;;29.05;34.50;98977.11;2211726;80;21004;-79
2022/06/06 09:28:09;;;;;;;40.70;6.47;;;;;;;28.95;33.92;98973.25;2211251;80;20958;-80
2022/06/06 09:31:07;;;;;;;9.88;4.17;;;;;;;28.75;34.17;98952.95;2211803;80;20983;-81
2022/06/06 09:34:11;;;;;;;;;;;;;;;28.86;33.91;98967.09;2213524;80;21050;-82
2022/06/06 09:37:11;;;;;;;15.85;4.75;;;;;;;28.81;34.02;98959.77;2211523;80;20151;-80
2022/06/06 09:40:11;;;;;;;7.00;4.00;;;;;;;28.90;34.45;98963.75;2211753;80;20980;-80
2022/06/06 09:43:13;;;;;;;7.75;3.60;;;;;;;28.90;33.22;98951.66;2212513;80;21002;-80
2022/06/06 09:46:12;;;;;;;5.75;3.52;;;;;;;29.00;33.30;98952.34;2211287;80;20960;-81
2022/06/06 09:49:13;;;;;;;4.10;3.75;;;;;;;29.06;33.18;98952.44;2210882;80;21054;-79
2022/06/06 09:52:13;;;;;;;4.40;4.00;;;;;;;29.13;33.77;98949.28;2211249;80;21622;-81
2022/06/06 10:01:51;;;;;;;4.50;4.10;;;;;;;29.34;33.82;98943.03;2210652;80;21015;-80
2022/06/06 10:04:52;;;;;;;4.67;4.28;;;;;;;29.31;34.28;98935.64;2210863;80;20999;-80
2022/06/06 10:07:52;;;;;;;3.77;3.58;;;;;;;29.28;33.69;98933.15;2210559;80;20971;-79
2022/06/06 10:10:52;;;;;;;4.47;3.90;;;;;;;29.29;33.65;98936.22;2210999;80;21402;-81
2022/06/06 10:13:53;;;;;;;5.92;4.45;;;;;;;29.33;33.26;98935.06;2210403;80;21011;-80
2022/06/06 10:16:53;;;;;;;4.20;3.90;;;;;;;29.35;33.34;98934.01;2204855;81;20995;-80
2022/06/06 10:19:54;;;;;;;4.17;3.77;;;;;;;29.41;33.00;98929.59;2204476;81;21015;-78
2022/06/06 10:22:54;;;;;;;7.20;4.03;;;;;;;29.26;33.34;98931.03;2204839;81;20987;-79
2022/06/06 10:25:54;;;;;;;5.00;4.50;;;;;;;28.96;33.44;98925.27;2205005;81;21071;-80
2022/06/06 10:28:55;;;;;;;4.55;4.03;;;;;;;28.73;34.67;98922.62;2204764;81;20972;-79
2022/06/06 10:31:55;;;;;;;4.70;4.30;;;;;;;28.73;34.60;98924.45;2204774;81;21007;-81
2022/06/06 10:34:56;;;;;;;4.33;3.92;;;;;;;28.97;34.01;98923.45;2204521;81;21004;-80
2022/06/06 10:37:56;;;;;;;350.43;32.10;;;;;;;29.16;33.94;98928.06;2203520;81;21027;-80
2022/06/06 10:40:57;;;;;;;10.85;4.58;;;;;;;29.17;33.86;98932.00;2204568;81;20984;-82
2022/06/06 10:43:58;;;;;;;6.95;3.83;;;;;;;29.34;33.63;98927.38;2204813;81;21042;-82
2022/06/06 10:46:57;;;;;;;8.48;3.65;;;;;;;29.18;33.29;98932.38;2204366;81;21456;-83
2022/06/06 10:49:58;;;;;;;13.38;5.33;;;;;;;29.05;33.37;98921.16;2204933;81;20972;-80
2022/06/06 10:52:58;;;;;;;5.25;4.40;;;;;;;29.16;33.07;98926.24;2204444;81;20972;-79
2022/06/06 10:55:59;;;;;;;76.60;10.40;;;;;;;29.38;33.16;98924.88;2204252;81;20975;-78
2022/06/06 10:58:59;;;;;;;5.03;4.33;;;;;;;29.46;32.83;98924.81;2205332;81;21417;-79
2022/06/06 11:01:59;;;;;;;4.85;4.17;;;;;;;29.60;32.82;98929.34;2204311;81;21028;-79
2022/06/06 11:05:00;;;;;;;4.50;3.98;;;;;;;29.48;32.71;98919.37;2205114;81;20967;-79
2022/06/06 11:08:00;;;;;;;4.25;3.95;;;;;;;29.44;32.33;98924.52;2204587;81;20968;-80
2022/06/06 11:11:01;;;;;;;4.92;4.28;;;;;;;29.35;31.76;98919.22;2205389;81;21391;-80
2022/06/06 11:14:02;;;;;;;4.85;3.67;;;;;;;29.05;32.63;98919.81;2205878;80;21051;-80
2022/06/06 11:17:02;;;;;;;5.90;3.67;;;;;;;29.07;32.90;98928.16;2211678;80;21375;-79
2022/06/06 11:20:03;;;;;;;4.85;4.08;;;;;;;29.29;32.54;98916.06;2210035;80;21046;-78
2022/06/06 11:23:03;;;;;;;7.03;4.20;;;;;;;29.60;32.48;98912.33;2211728;80;21006;-80
2022/06/06 11:26:04;;;;;;;6.03;3.72;;;;;;;29.76;32.10;98915.27;2210615;80;21426;-79
2022/06/06 11:29:04;;;;;;;32.48;5.53;;;;;;;29.88;31.67;98908.70;2210001;80;20983;-80
2022/06/06 11:32:04;;;;;;;4.90;3.60;;;;;;;29.94;31.90;98902.44;2209634;80;20928;-80
2022/06/06 11:35:05;;;;;;;8.45;3.80;;;;;;;29.89;32.23;98900.53;2210502;80;21997;-80
2022/06/06 11:38:06;;;;;;;4.72;3.60;;;;;;;29.75;31.55;98900.09;2209744;80;21035;-80
2022/06/06 11:41:06;;;;;;;11.50;4.30;;;;;;;29.85;31.35;98903.52;2210011;80;20979;-80
2022/06/06 11:44:06;;;;;;;10.43;3.83;;;;;;;29.92;31.11;98904.84;2211728;80;20971;-80
2022/06/06 11:47:06;;;;;;;9.60;3.80;;;;;;;30.01;30.56;98897.05;2211167;80;21550;-81
2022/06/06 11:50:07;;;;;;;5.70;3.40;;;;;;;30.14;31.22;98903.83;2211218;80;21047;-80
2022/06/06 11:53:07;;;;;;;3.75;3.37;;;;;;;30.19;30.22;98893.61;2210043;80;21027;-78
2022/06/06 11:56:08;;;;;;;3.55;3.20;;;;;;;30.36;30.28;98882.59;2211626;80;21030;-79
2022/06/06 11:59:10;;;;;;;6.62;3.00;;;;;;;30.54;29.48;98890.38;2210486;80;21006;-78
2022/06/06 12:02:09;;;;;;;5.72;3.05;;;;;;;30.57;28.32;98890.16;2211535;80;21038;-78
2022/06/06 12:05:09;;;;;;;4.33;3.87;;;;;;;30.84;29.30;98888.75;2211203;80;21446;-79
2022/06/06 12:08:09;;;;;;;9.50;3.50;;;;;;;30.84;29.30;98888.75;2210999;80;21030;-78
2022/06/06 12:11:10;;;;;;;13.58;4.08;;;;;;;30.96;28.31;98891.44;2209791;80;21288;-79
2022/06/06 12:14:14;;;;;;;3.72;3.20;;;;;;;31.00;28.52;98886.21;2210368;80;20972;-79
2022/06/06 12:17:11;;;;;;;3.47;3.08;;;;;;;30.93;28.76;98877.32;2212778;80;21022;-79
2022/06/06 12:20:11;;;;;;;45.48;6.17;;;;;;;30.96;28.65;98882.01;2210414;80;21086;-78
2022/06/06 12:23:12;;;;;;;6.20;3.17;;;;;;;30.76;28.22;98874.47;2210007;80;21992;-81
2022/06/06 12:26:12;;;;;;;3.95;3.27;;;;;;;30.65;28.43;98867.63;2212086;80;21055;-80
2022/06/06 12:29:12;;;;;;;3.60;3.12;;;;;;;30.89;28.62;98867.25;2212283;80;20979;-80
2022/06/06 12:32:13;;;;;;;3.55;3.25;;;;;;;30.95;27.92;98857.37;2212043;80;21378;-79
2022/06/06 12:35:13;;;;;;;5.83;3.47;;;;;;;30.95;28.32;98851.13;2207166;80;21011;-77
2022/06/06 12:38:13;;;;;;;5.08;3.45;;;;;;;31.03;27.98;98852.30;2208096;80;20987;-77
2022/06/06 12:41:14;;;;;;;8.33;3.70;;;;;;;30.81;27.87;98850.75;2208330;80;20971;-77
2022/06/06 12:44:14;;;;;;;5.03;3.10;;;;;;;30.81;28.84;98855.28;2208200;80;20955;-76
2022/06/06 12:47:15;;;;;;;3.50;3.20;;;;;;;30.97;28.59;98847.34;2208003;80;21030;-76
2022/06/06 12:50:15;;;;;;;8.80;3.95;;;;;;;30.83;28.82;98846.12;2208399;80;21047;-76
2022/06/06 12:53:15;;;;;;;3.58;3.15;;;;;;;30.58;28.59;98844.75;2208278;80;21050;-78
2022/06/06 12:56:25;;;;;;;10.63;4.97;;;;;;;30.24;29.14;98844.84;2209480;80;20995;-80
2022/06/06 12:59:26;;;;;;;5.05;3.30;;;;;;;30.08;29.60;98840.98;2210390;80;21450;-80
2022/06/06 13:02:26;;;;;;;5.42;2.80;;;;;;;30.51;29.01;98834.02;2211842;80;20944;-80
2022/06/06 13:05:26;;;;;;;10.78;4.37;;;;;;;30.64;29.21;98833.58;2212209;80;20983;-78
2022/06/06 13:08:27;;;;;;;6.75;4.25;;;;;;;30.96;28.30;98831.28;2211497;80;20960;-79
2022/06/06 13:11:27;;;;;;;10.68;3.30;;;;;;;31.23;28.21;98828.00;2209760;80;20999;-80
2022/06/06 13:14:28;;;;;;;4.55;2.90;;;;;;;31.16;27.81;98820.44;2211798;80;20995;-79
2022/06/06 13:17:28;;;;;;;8.43;3.20;;;;;;;31.10;27.43;98812.28;2210909;80;20933;-79
2022/06/06 13:20:29;;;;;;;8.18;3.35;;;;;;;30.95;27.52;98820.13;2207845;80;21023;-79
2022/06/06 13:23:29;;;;;;;42.20;5.55;;;;;;;30.89;27.75;98816.52;2206431;80;20991;-79
2022/06/06 13:26:31;;;;;;;9.00;3.70;;;;;;;30.91;27.49;98811.89;2206153;80;20995;-78
2022/06/06 13:29:31;;;;;;;3.85;2.70;;;;;;;31.06;27.15;98810.30;2209456;80;21055;-80
2022/06/06 13:32:30;;;;;;;3.42;2.60;;;;;;;31.14;27.24;98810.22;2209773;80;20943;-80
2022/06/06 13:35:31;;;;;;;2.90;2.50;;;;;;;31.06;26.63;98812.13;2209570;80;21436;-79
2022/06/06 13:38:31;;;;;;;15.18;3.80;;;;;;;31.05;26.59;98811.27;2210084;80;21678;-80
2022/06/06 13:41:31;;;;;;;4.25;2.67;;;;;;;31.09;26.44;98811.91;2210460;80;20951;-79
2022/06/06 13:44:32;;;;;;;15.00;3.55;;;;;;;31.24;26.35;98807.30;2210833;80;21230;-80
2022/06/06 13:47:32;;;;;;;4.40;2.70;;;;;;;31.33;25.99;98807.97;2210535;80;20932;-83
2022/06/06 13:50:33;;;;;;;2.80;2.60;;;;;;;31.42;25.45;98811.34;2211019;80;20975;-82
2022/06/06 13:53:33;;;;;;;5.37;2.72;;;;;;;31.05;26.22;98807.22;2210931;80;20948;-79
2022/06/06 13:56:33;;;;;;;3.30;2.50;;;;;;;30.99;26.83;98808.16;2210120;80;21550;-80
2022/06/06 13:59:34;;;;;;;3.98;2.70;;;;;;;30.89;27.54;98812.00;2210905;80;21019;-85
2022/06/06 14:02:35;;;;;;;3.22;2.50;;;;;;;30.94;26.86;98813.88;2209990;80;21023;-79
2022/06/06 14:05:35;;;;;;;2.35;2.25;;;;;;;30.91;26.72;98807.36;2209687;80;20952;-80
2022/06/06 14:08:35;;;;;;;6.37;3.30;;;;;;;30.82;27.12;98800.42;2212337;80;20932;-84
2022/06/06 14:11:36;;;;;;;6.50;3.12;;;;;;;30.61;26.75;98799.63;2212860;80;20947;-85
2022/06/06 14:14:36;;;;;;;3.47;2.90;;;;;;;30.27;27.52;98802.89;2213165;80;20999;-83
2022/06/06 14:17:37;;;;;;;16.65;4.10;;;;;;;30.00;27.17;98796.20;2206851;80;21437;-81